메인 페이지
METAR-TAF:

METAR-TAF

공항 :

두바이 국제공항

두바이, 아랍에미리트

위도: 25-15-10N, 경도: 055-21-52E, 고도: 8m

현재 날씨관측

예보는 25분 전, 15:00시(UTC)에 발표되었습니다.
북서7kt서북서풍과 풍을 오가는
온도 25°C
습도 74%
기압 1012 hPa
시정 10km 이상
1500m 미만 상공 구름 및 적란운 없음

METAR: OMDB 111500Z 32007KT 300V010 CAVOK 25/20 Q1012 NOSIG

시각: 19:25 (15:25 UTC)

예보

예보는 4 시간 26분 전, 10:59시(UTC)에 발표되었습니다.
예보 대상 시간: 11일 12시부터 12일 18시까지 (UTC)
서북서13kt
시정: 8000m
고도 3000ft 상공 구름 보통
확률 40%
12일 00시부터 12일 04시까지 (UTC)
남서5kt
전환 중
12일 16시부터 12일 18시까지 (UTC)
남남동5kt

TAF: OMDB 111059Z 1112/1218 30013KT 8000 SCT030 PROB40 1200/1204 23005KT BECMG 1216/1218 16005KT

4,000개 이상의 공항 관측 자료 및 예보 (METAR 및 TAF 보고).

지도상에서 검색 가능한 기상관측소가 노란 점과 빨간 점으로 표시되어 있습니다.

기상관측소 명을 보려면 표시 위로 마우스를 이동하세요.

날씨 관측과 예보를 보려면 클릭하세요.

지도 변경 : 확대하려면 엑스 표시가 있는 녹색 버튼, 축소하려면 빼기 표시가 있는 녹색 버튼, 다음 페이지의 지도를 보려면 녹색 화살표를 클릭하세요.


METAR-TAF: